Time;durP1;ratioP1;P1;durP2;ratioP2;P2;SDS_P1;SDS_P2;PMS_P1;PMS_P2;Temp;Humidity;BMP_temperature;BMP_pressure;BME280_temperature;BME280_humidity;BME280_pressure;Samples;Min_cycle;Max_cycle;Signal;HPM_P1;HPM_P2
2023/04/27 00:00:51;;;;;;;1.55;0.73;;;22.10;48.50;;;;;;5038864;28;20033;-68
2023/04/27 00:03:17;;;;;;;1.23;0.77;;;22.00;48.40;;;;;;5036108;28;20087;-68
2023/04/27 00:05:42;;;;;;;1.50;0.95;;;22.00;48.40;;;;;;5038075;28;20029;-69
2023/04/27 00:08:08;;;;;;;1.10;0.90;;;22.10;48.50;;;;;;5038798;28;20041;-68
2023/04/27 00:10:34;;;;;;;1.60;0.90;;;22.10;48.50;;;;;;5038759;28;20139;-69
2023/04/27 00:13:00;;;;;;;1.48;0.80;;;22.10;48.50;;;;;;5038635;28;20029;-69
2023/04/27 00:15:26;;;;;;;1.73;0.82;;;22.10;48.50;;;;;;5038340;28;20087;-68
2023/04/27 00:17:53;;;;;;;1.23;0.75;;;22.00;48.40;;;;;;5037114;28;20366;-68
2023/04/27 00:20:19;;;;;;;1.30;0.80;;;22.00;48.40;;;;;;5037866;28;20025;-68
2023/04/27 00:22:45;;;;;;;1.75;0.90;;;22.10;48.50;;;;;;5035342;28;20036;-68
2023/04/27 00:25:11;;;;;;;1.48;0.88;;;22.00;48.40;;;;;;5040161;28;20021;-68
2023/04/27 00:27:36;;;;;;;1.25;0.73;;;22.00;48.40;;;;;;5039091;28;20026;-68
2023/04/27 00:30:03;;;;;;;1.10;0.73;;;22.00;48.40;;;;;;5035416;28;20071;-68
2023/04/27 00:32:28;;;;;;;2.08;0.80;;;22.00;48.40;;;;;;5038258;28;20028;-68
2023/04/27 00:34:54;;;;;;;1.17;0.77;;;22.00;48.40;;;;;;5036571;28;20024;-67
2023/04/27 00:37:20;;;;;;;1.35;0.80;;;22.00;48.40;;;;;;5038461;28;20130;-68
2023/04/27 00:39:45;;;;;;;1.33;0.80;;;22.00;48.40;;;;;;5037535;28;20398;-68
2023/04/27 00:42:14;;;;;;;1.75;0.80;;;22.00;48.40;;;;;;5038746;28;20462;-68
2023/04/27 00:44:39;;;;;;;1.20;0.80;;;22.00;48.40;;;;;;5035681;28;20032;-69
2023/04/27 00:47:05;;;;;;;2.05;0.80;;;22.00;48.40;;;;;;5036856;28;20259;-68
2023/04/27 00:49:31;;;;;;;1.38;0.80;;;22.00;48.40;;;;;;5035702;28;20025;-68
2023/04/27 00:51:57;;;;;;;1.05;0.90;;;22.00;48.40;;;;;;5036520;28;20032;-68
2023/04/27 00:54:23;;;;;;;1.25;0.80;;;22.00;48.40;;;;;;5036041;28;20075;-68
2023/04/27 00:56:50;;;;;;;1.38;0.80;;;22.00;48.40;;;;;;5035402;28;20366;-68
2023/04/27 00:59:19;;;;;;;1.40;0.90;;;22.00;48.40;;;;;;5035940;28;20454;-69
2023/04/27 01:01:51;;;;;;;0.85;0.70;;;22.00;48.40;;;;;;5038446;28;20473;-69
2023/04/27 01:04:18;;;;;;;1.10;0.70;;;21.90;48.30;;;;;;5037603;28;20140;-69
2023/04/27 01:06:43;;;;;;;1.15;0.63;;;22.00;48.40;;;;;;5039622;28;20033;-69
2023/04/27 01:09:09;;;;;;;1.17;0.70;;;21.90;48.30;;;;;;5037378;28;20033;-69
2023/04/27 01:11:35;;;;;;;1.05;0.70;;;22.00;48.40;;;;;;5036639;28;20044;-69
2023/04/27 01:14:04;;;;;;;1.52;1.02;;;21.90;48.30;;;;;;5037432;28;20025;-69
2023/04/27 01:16:30;;;;;;;1.30;0.70;;;21.90;48.30;;;;;;5052871;28;20017;-69
2023/04/27 01:18:56;;;;;;;1.70;0.90;;;22.00;48.40;;;;;;5039265;28;20560;-69
2023/04/27 01:21:22;;;;;;;1.83;0.88;;;21.90;48.30;;;;;;5038144;28;20100;-69
2023/04/27 01:23:47;;;;;;;1.10;0.65;;;21.90;48.30;;;;;;5037124;28;20040;-69
2023/04/27 01:26:15;;;;;;;1.10;0.80;;;21.90;48.30;;;;;;5034643;28;20435;-68
2023/04/27 01:28:41;;;;;;;0.95;0.63;;;21.90;48.30;;;;;;5037560;28;20481;-69
2023/04/27 01:31:08;;;;;;;1.27;0.73;;;21.90;48.30;;;;;;5039584;28;20036;-68
2023/04/27 01:33:34;;;;;;;1.30;0.80;;;21.90;48.30;;;;;;5040718;28;20056;-68
2023/04/27 01:35:59;;;;;;;0.73;0.50;;;21.90;48.30;;;;;;5041121;28;20104;-68
2023/04/27 01:38:25;;;;;;;1.75;0.70;;;21.90;48.30;;;;;;5041320;28;20024;-69
2023/04/27 01:40:51;;;;;;;1.27;0.77;;;21.90;48.30;;;;;;5040861;28;20033;-68
2023/04/27 01:43:17;;;;;;;1.00;0.70;;;21.90;48.30;;;;;;5039738;28;20045;-69
2023/04/27 01:45:42;;;;;;;1.20;0.70;;;21.90;48.80;;;;;;5036864;28;20087;-68
2023/04/27 01:48:08;;;;;;;1.13;0.70;;;21.90;48.30;;;;;;5040998;28;20024;-68
2023/04/27 01:50:33;;;;;;;1.20;0.80;;;21.90;48.30;;;;;;5053980;28;20036;-68
2023/04/27 01:52:59;;;;;;;1.15;0.80;;;21.90;48.30;;;;;;5039788;28;20029;-68
2023/04/27 01:55:25;;;;;;;1.05;0.70;;;21.90;48.30;;;;;;5039705;28;20503;-68
2023/04/27 01:57:50;;;;;;;0.80;0.60;;;21.90;48.30;;;;;;5042762;28;20029;-68
2023/04/27 02:00:16;;;;;;;1.23;0.82;;;21.90;48.30;;;;;;5039999;28;20427;-69
2023/04/27 02:02:42;;;;;;;1.48;0.70;;;21.90;48.30;;;;;;5042472;28;20540;-69
2023/04/27 02:05:07;;;;;;;1.13;0.80;;;21.80;48.20;;;;;;5041549;28;20293;-66
2023/04/27 02:07:33;;;;;;;1.05;0.70;;;21.80;48.20;;;;;;5041623;28;20520;-69
2023/04/27 02:09:59;;;;;;;1.10;0.70;;;21.90;48.30;;;;;;5039998;28;20030;-68
2023/04/27 02:12:25;;;;;;;1.13;0.70;;;21.80;48.20;;;;;;5037833;28;20781;-69
2023/04/27 02:14:50;;;;;;;0.90;0.60;;;21.80;48.30;;;;;;5039153;28;20044;-67
2023/04/27 02:17:16;;;;;;;1.73;0.85;;;21.90;48.30;;;;;;5038903;28;20033;-69
2023/04/27 02:19:41;;;;;;;1.30;0.70;;;21.80;48.20;;;;;;5040716;28;20065;-69
2023/04/27 02:22:07;;;;;;;0.85;0.70;;;21.90;48.30;;;;;;5042522;28;20028;-68
2023/04/27 02:24:34;;;;;;;1.10;0.80;;;21.90;48.30;;;;;;5039849;28;20055;-68
2023/04/27 02:27:00;;;;;;;0.90;0.70;;;21.90;48.30;;;;;;5038001;28;20052;-68
2023/04/27 02:29:30;;;;;;;1.58;0.60;;;21.80;48.20;;;;;;5039052;28;20041;-68
2023/04/27 02:31:55;;;;;;;0.88;0.70;;;21.80;48.20;;;;;;5039780;28;20130;-68
2023/04/27 02:34:21;;;;;;;0.73;0.60;;;21.80;48.20;;;;;;5039932;28;20168;-68
2023/04/27 02:36:46;;;;;;;0.95;0.82;;;21.80;48.20;;;;;;5041935;28;20326;-69
2023/04/27 02:39:12;;;;;;;0.80;0.65;;;21.80;48.20;;;;;;5039142;28;20326;-68
2023/04/27 02:41:38;;;;;;;0.93;0.60;;;21.80;48.20;;;;;;5038634;28;20100;-69
2023/04/27 02:44:03;;;;;;;0.80;0.70;;;21.80;48.20;;;;;;5038553;28;20393;-68
2023/04/27 02:46:29;;;;;;;0.90;0.70;;;21.80;48.20;;;;;;5037500;28;20029;-67
2023/04/27 02:48:55;;;;;;;0.90;0.70;;;21.80;48.20;;;;;;5036636;28;20021;-68
2023/04/27 02:51:21;;;;;;;0.98;0.70;;;21.80;48.20;;;;;;5041248;28;20044;-68
2023/04/27 02:53:46;;;;;;;1.13;0.60;;;21.80;48.20;;;;;;5039299;28;20057;-68
2023/04/27 02:56:12;;;;;;;0.75;0.65;;;21.80;48.20;;;;;;5038141;28;20365;-68
2023/04/27 02:58:38;;;;;;;0.80;0.65;;;21.80;48.20;;;;;;5038334;28;20048;-68
2023/04/27 03:01:03;;;;;;;1.20;0.73;;;21.80;48.20;;;;;;5036766;28;20120;-68
2023/04/27 03:03:29;;;;;;;1.13;0.70;;;21.80;48.20;;;;;;5039219;28;20083;-67
2023/04/27 03:05:54;;;;;;;0.95;0.70;;;21.80;48.20;;;;;;5043448;28;20033;-68
2023/04/27 03:08:20;;;;;;;0.85;0.65;;;21.70;48.20;;;;;;5039222;28;20032;-68
2023/04/27 03:10:46;;;;;;;0.93;0.70;;;21.70;48.20;;;;;;5036969;28;20508;-68
2023/04/27 03:13:13;;;;;;;0.75;0.60;;;21.80;48.20;;;;;;5041537;28;20329;-68
2023/04/27 03:15:39;;;;;;;1.25;0.70;;;21.70;48.20;;;;;;5038539;28;20025;-68
2023/04/27 03:18:05;;;;;;;0.77;0.60;;;21.70;48.20;;;;;;5040794;28;20469;-69
2023/04/27 03:20:30;;;;;;;0.90;0.60;;;21.70;48.20;;;;;;5037739;28;20422;-68
2023/04/27 03:22:56;;;;;;;0.95;0.68;;;21.70;48.20;;;;;;5042464;28;20045;-68
2023/04/27 03:25:22;;;;;;;1.23;0.70;;;21.70;48.20;;;;;;5039280;28;20029;-68
2023/04/27 03:27:47;;;;;;;1.15;0.70;;;21.70;48.20;;;;;;5038453;28;20496;-68
2023/04/27 03:30:13;;;;;;;1.40;0.70;;;21.70;48.20;;;;;;5039609;28;20063;-68
2023/04/27 03:32:39;;;;;;;1.08;0.70;;;21.70;48.20;;;;;;5037765;28;20475;-68
2023/04/27 03:35:05;;;;;;;1.10;0.60;;;21.70;48.20;;;;;;5042050;28;20025;-68
2023/04/27 03:37:31;;;;;;;0.80;0.70;;;21.70;48.20;;;;;;5041420;28;20076;-67
2023/04/27 03:39:57;;;;;;;2.22;0.70;;;21.70;48.20;;;;;;5037007;28;20021;-69
2023/04/27 03:42:22;;;;;;;1.00;0.70;;;21.70;48.20;;;;;;5036546;28;20041;-68
2023/04/27 03:44:48;;;;;;;0.75;0.63;;;21.70;48.20;;;;;;5035598;28;20377;-68
2023/04/27 03:47:14;;;;;;;1.00;0.60;;;21.70;48.20;;;;;;5038485;28;20076;-68
2023/04/27 03:49:39;;;;;;;0.70;0.60;;;21.70;48.30;;;;;;5038667;28;20033;-69
2023/04/27 03:52:05;;;;;;;0.88;0.70;;;21.70;48.30;;;;;;5038899;28;20025;-68
2023/04/27 03:54:31;;;;;;;0.73;0.63;;;21.70;48.30;;;;;;5039949;28;20112;-68
2023/04/27 03:56:56;;;;;;;1.58;1.00;;;21.70;48.20;;;;;;5036377;28;20495;-68
2023/04/27 03:59:22;;;;;;;1.23;0.70;;;21.70;48.30;;;;;;5034415;28;20035;-68
2023/04/27 04:01:47;;;;;;;1.10;0.70;;;21.60;48.20;;;;;;5037756;28;20362;-67
2023/04/27 04:04:13;;;;;;;0.88;0.63;;;21.70;48.30;;;;;;5034808;28;20030;-68
2023/04/27 04:06:38;;;;;;;0.90;0.77;;;21.60;48.20;;;;;;5037662;28;20453;-67
2023/04/27 04:09:04;;;;;;;0.98;0.60;;;21.70;48.30;;;;;;5037424;28;20083;-68
2023/04/27 04:11:30;;;;;;;0.73;0.60;;;21.70;48.30;;;;;;5038769;28;20429;-67
2023/04/27 04:13:55;;;;;;;1.15;0.70;;;21.70;48.30;;;;;;5034318;28;20035;-68
2023/04/27 04:16:21;;;;;;;1.05;0.50;;;21.70;48.30;;;;;;5035381;28;20091;-67
2023/04/27 04:18:47;;;;;;;0.93;0.70;;;21.70;48.30;;;;;;5040144;28;20037;-67
2023/04/27 04:21:13;;;;;;;0.68;0.65;;;21.60;48.30;;;;;;5037817;28;20017;-69
2023/04/27 04:23:39;;;;;;;0.93;0.60;;;21.60;48.30;;;;;;5039156;28;20051;-67
2023/04/27 04:26:06;;;;;;;1.17;0.70;;;21.60;48.30;;;;;;5038525;28;20576;-68
2023/04/27 04:28:32;;;;;;;0.57;0.50;;;21.60;48.30;;;;;;5039381;28;20490;-67
2023/04/27 04:30:59;;;;;;;0.80;0.60;;;21.60;48.30;;;;;;5037797;28;20102;-67
2023/04/27 04:33:26;;;;;;;0.90;0.60;;;21.60;48.30;;;;;;5037985;28;20149;-69
2023/04/27 04:35:55;;;;;;;0.65;0.50;;;21.60;48.30;;;;;;5039630;28;20063;-67
2023/04/27 04:38:22;;;;;;;1.20;0.90;;;21.60;48.30;;;;;;5039195;28;20033;-67
2023/04/27 04:40:49;;;;;;;0.82;0.60;;;21.60;48.80;;;;;;5038790;28;20105;-66
2023/04/27 04:43:14;;;;;;;1.00;0.70;;;21.60;48.30;;;;;;5039089;28;20032;-68
2023/04/27 04:45:41;;;;;;;0.73;0.60;;;21.60;48.30;;;;;;5037028;28;20017;-67
2023/04/27 04:48:07;;;;;;;0.80;0.60;;;21.60;48.30;;;;;;5036770;28;20434;-68
2023/04/27 04:50:33;;;;;;;0.82;0.70;;;21.60;48.30;;;;;;5033866;28;20098;-67
2023/04/27 04:52:58;;;;;;;0.60;0.60;;;21.60;48.30;;;;;;5037808;28;20033;-67
2023/04/27 04:55:27;;;;;;;0.80;0.60;;;21.60;48.30;;;;;;5034995;28;20437;-67
2023/04/27 04:57:52;;;;;;;0.77;0.60;;;21.60;48.30;;;;;;5036034;28;20017;-63
2023/04/27 05:00:18;;;;;;;0.60;0.60;;;21.60;48.30;;;;;;5036625;28;20035;-67
2023/04/27 05:02:43;;;;;;;0.80;0.68;;;21.60;48.30;;;;;;5037885;28;20034;-66
2023/04/27 05:05:09;;;;;;;0.80;0.63;;;21.60;48.30;;;;;;5038553;28;20360;-67
2023/04/27 05:07:35;;;;;;;0.50;0.50;;;21.60;48.30;;;;;;5036949;28;20154;-66
2023/04/27 05:10:00;;;;;;;1.00;0.60;;;21.60;48.40;;;;;;5036860;28;20393;-66
2023/04/27 05:12:26;;;;;;;0.60;0.60;;;21.60;48.40;;;;;;5034118;28;20451;-67
2023/04/27 05:14:52;;;;;;;0.93;0.70;;;21.60;48.40;;;;;;5037899;28;20112;-67
2023/04/27 05:17:18;;;;;;;0.70;0.60;;;21.60;48.40;;;;;;5035213;28;20436;-67
2023/04/27 05:19:43;;;;;;;0.50;0.50;;;21.60;48.40;;;;;;5037890;28;20098;-67
2023/04/27 05:22:09;;;;;;;0.65;0.50;;;21.60;48.40;;;;;;5036495;28;20029;-67
2023/04/27 05:24:35;;;;;;;0.68;0.57;;;21.60;48.40;;;;;;5037412;28;20059;-67
2023/04/27 05:27:01;;;;;;;0.98;0.60;;;21.60;48.40;;;;;;5036668;28;20105;-67
2023/04/27 05:29:26;;;;;;;0.60;0.60;;;21.60;48.40;;;;;;5036641;28;20064;-67
2023/04/27 05:31:55;;;;;;;1.08;0.60;;;21.60;48.40;;;;;;5034933;28;20041;-67
2023/04/27 05:34:20;;;;;;;0.65;0.60;;;21.60;48.40;;;;;;5038737;28;20034;-67
2023/04/27 05:36:46;;;;;;;0.90;0.70;;;21.60;48.40;;;;;;5039309;28;20101;-66
2023/04/27 05:39:12;;;;;;;0.95;0.60;;;21.50;48.30;;;;;;5037610;28;20025;-66
2023/04/27 05:41:38;;;;;;;0.88;0.57;;;21.50;48.30;;;;;;5036697;28;20029;-67
2023/04/27 05:44:04;;;;;;;0.80;0.60;;;21.50;48.30;;;;;;5036413;28;20358;-67
2023/04/27 05:46:30;;;;;;;0.80;0.52;;;21.50;48.30;;;;;;5034341;28;20423;-67
2023/04/27 05:48:59;;;;;;;1.15;0.70;;;21.50;48.30;;;;;;5036346;28;20022;-67
2023/04/27 05:51:24;;;;;;;0.98;0.70;;;21.50;48.30;;;;;;5034768;28;20028;-66
2023/04/27 05:53:54;;;;;;;0.95;0.70;;;21.50;48.30;;;;;;5039215;28;20029;-67
2023/04/27 05:56:19;;;;;;;0.73;0.50;;;21.50;48.20;;;;;;5033932;28;20021;-67
2023/04/27 05:58:46;;;;;;;1.23;0.75;;;21.50;48.20;;;;;;5036245;28;20141;-64
2023/04/27 06:01:11;;;;;;;1.10;0.70;;;21.50;48.20;;;;;;5034713;28;20075;-67
2023/04/27 06:03:37;;;;;;;0.90;0.60;;;21.50;48.20;;;;;;5036922;28;20507;-67
2023/04/27 06:06:03;;;;;;;0.68;0.55;;;21.50;48.20;;;;;;5038042;28;20029;-67
2023/04/27 06:08:29;;;;;;;0.70;0.60;;;21.50;48.20;;;;;;5036852;28;20045;-67
2023/04/27 06:10:55;;;;;;;0.85;0.70;;;21.50;48.20;;;;;;5039418;28;20036;-67
2023/04/27 06:13:21;;;;;;;1.08;0.70;;;21.50;48.20;;;;;;5038198;28;20470;-67
2023/04/27 06:15:47;;;;;;;0.60;0.55;;;21.50;48.10;;;;;;5039283;28;20036;-67
2023/04/27 06:18:13;;;;;;;1.15;0.70;;;21.50;48.10;;;;;;5037039;28;20330;-67
2023/04/27 06:20:38;;;;;;;1.15;0.70;;;21.50;48.10;;;;;;5040574;28;20516;-67
2023/04/27 06:23:04;;;;;;;0.70;0.70;;;21.50;48.10;;;;;;5037700;28;20090;-67
2023/04/27 06:25:30;;;;;;;1.17;0.80;;;21.50;48.10;;;;;;5038243;28;20033;-67
2023/04/27 06:27:56;;;;;;;1.17;0.70;;;21.50;48.10;;;;;;5041436;28;20076;-67
2023/04/27 06:30:23;;;;;;;1.00;0.70;;;21.50;48.00;;;;;;5040659;28;20516;-67
2023/04/27 06:32:49;;;;;;;0.75;0.68;;;21.50;48.00;;;;;;5039734;28;20492;-67
2023/04/27 06:35:15;;;;;;;0.88;0.70;;;21.50;48.00;;;;;;5039117;28;20025;-67
2023/04/27 06:37:41;;;;;;;1.15;0.80;;;21.50;48.00;;;;;;5040901;28;20112;-68
2023/04/27 06:40:07;;;;;;;0.90;0.70;;;21.50;48.00;;;;;;5040294;28;20165;-68
2023/04/27 06:42:33;;;;;;;0.80;0.75;;;21.50;48.00;;;;;;5041134;28;20049;-67
2023/04/27 06:44:59;;;;;;;0.93;0.70;;;21.50;47.90;;;;;;5037290;28;20096;-67
2023/04/27 06:47:25;;;;;;;1.15;0.80;;;21.50;48.00;;;;;;5040353;28;20033;-68
2023/04/27 06:49:50;;;;;;;0.60;0.60;;;21.50;48.00;;;;;;5040528;28;20029;-67
2023/04/27 06:52:16;;;;;;;1.20;0.75;;;21.50;47.90;;;;;;5040453;28;20033;-66
2023/04/27 06:54:42;;;;;;;1.13;0.82;;;21.50;48.00;;;;;;5036481;28;20381;-68
2023/04/27 06:57:08;;;;;;;0.98;0.70;;;21.50;48.00;;;;;;5036469;28;20543;-68
2023/04/27 06:59:33;;;;;;;0.70;0.60;;;21.50;47.90;;;;;;5041636;28;20188;-68
2023/04/27 07:01:59;;;;;;;0.98;0.80;;;21.50;47.90;;;;;;5041529;28;20111;-68
2023/04/27 07:04:26;;;;;;;1.25;0.70;;;21.50;47.90;;;;;;5039069;28;20499;-68
2023/04/27 07:06:51;;;;;;;0.98;0.70;;;21.50;47.90;;;;;;5039089;28;20131;-68
2023/04/27 07:09:17;;;;;;;1.15;0.70;;;21.50;47.90;;;;;;5039332;28;20040;-68
2023/04/27 07:11:42;;;;;;;0.98;0.73;;;21.50;47.90;;;;;;5040952;28;20101;-68
2023/04/27 07:14:08;;;;;;;1.52;0.80;;;21.50;47.90;;;;;;5037817;28;20026;-68
2023/04/27 07:16:33;;;;;;;1.23;0.70;;;21.50;47.90;;;;;;5038557;28;20104;-68
2023/04/27 07:19:00;;;;;;;0.80;0.70;;;21.50;47.90;;;;;;5041577;28;20029;-68
2023/04/27 07:21:25;;;;;;;1.05;0.80;;;21.50;47.90;;;;;;5038822;28;20488;-68
2023/04/27 07:23:51;;;;;;;1.00;0.70;;;21.50;47.90;;;;;;5039367;28;20056;-68
2023/04/27 07:26:16;;;;;;;1.95;0.70;;;21.50;47.90;;;;;;5039393;28;20401;-68
2023/04/27 07:28:43;;;;;;;1.10;0.85;;;21.50;47.90;;;;;;5040225;28;20048;-68
2023/04/27 07:31:09;;;;;;;1.15;0.70;;;21.50;47.90;;;;;;5037201;28;20021;-68
2023/04/27 07:33:35;;;;;;;0.70;0.70;;;21.40;47.80;;;;;;5037833;28;20021;-68
2023/04/27 07:36:01;;;;;;;1.08;0.70;;;21.40;47.80;;;;;;5038291;28;20435;-66
2023/04/27 07:38:30;;;;;;;1.15;0.98;;;21.40;47.90;;;;;;5039695;28;20474;-68
2023/04/27 07:41:03;;;;;;;1.10;0.70;;;21.40;47.80;;;;;;5038129;28;20052;-67
2023/04/27 07:43:31;;;;;;;1.20;0.80;;;21.40;48.30;;;;;;5040230;28;20506;-68
2023/04/27 07:45:57;;;;;;;1.40;0.80;;;21.40;47.80;;;;;;5035262;28;20033;-68
2023/04/27 07:48:23;;;;;;;0.70;0.70;;;21.40;47.80;;;;;;5036747;28;20040;-68
2023/04/27 07:50:48;;;;;;;1.02;0.70;;;21.40;47.80;;;;;;5040747;28;20488;-68
2023/04/27 07:53:14;;;;;;;0.93;0.70;;;21.40;47.80;;;;;;5039009;28;20084;-68
2023/04/27 07:55:40;;;;;;;1.20;0.90;;;21.40;47.80;;;;;;5040117;28;20025;-68
2023/04/27 07:58:06;;;;;;;1.30;0.75;;;21.50;47.90;;;;;;5038206;28;20040;-68
2023/04/27 08:00:31;;;;;;;1.27;0.80;;;21.40;47.80;;;;;;5039343;28;20049;-68
2023/04/27 08:02:57;;;;;;;1.10;0.80;;;21.50;47.90;;;;;;5039071;28;20031;-67
2023/04/27 08:05:22;;;;;;;1.10;0.70;;;21.40;47.80;;;;;;5036437;28;20037;-68
2023/04/27 08:07:48;;;;;;;1.20;0.80;;;21.40;47.80;;;;;;5037991;28;20037;-67
2023/04/27 08:10:14;;;;;;;1.00;0.80;;;21.40;47.80;;;;;;5037460;28;20033;-68
2023/04/27 08:12:40;;;;;;;1.05;0.70;;;21.40;47.80;;;;;;5035965;28;20037;-68
2023/04/27 08:15:06;;;;;;;1.30;0.80;;;21.40;47.80;;;;;;5036118;28;20025;-68
2023/04/27 08:17:32;;;;;;;1.10;0.90;;;21.40;47.80;;;;;;5036540;28;20014;-68
2023/04/27 08:19:58;;;;;;;1.15;0.73;;;21.40;48.30;;;;;;5035900;28;20389;-68
2023/04/27 08:22:23;;;;;;;1.83;0.93;;;21.40;47.80;;;;;;5040962;28;20064;-68
2023/04/27 08:24:49;;;;;;;1.25;0.82;;;21.40;47.80;;;;;;5038672;28;20029;-68
2023/04/27 08:27:15;;;;;;;1.70;1.00;;;21.40;47.80;;;;;;5038196;28;20025;-68
2023/04/27 08:29:46;;;;;;;1.25;0.80;;;21.40;47.80;;;;;;5039016;28;20437;-68
2023/04/27 08:32:12;;;;;;;1.80;0.90;;;21.40;47.80;;;;;;5039245;28;20183;-68
2023/04/27 08:34:38;;;;;;;1.60;0.80;;;21.40;47.80;;;;;;5038511;28;20079;-68
2023/04/27 08:37:04;;;;;;;1.45;0.85;;;21.40;47.80;;;;;;5036813;28;20446;-68
2023/04/27 08:39:29;;;;;;;2.05;0.90;;;21.40;47.80;;;;;;5035970;28;20391;-68
2023/04/27 08:41:55;;;;;;;1.60;0.88;;;21.40;47.80;;;;;;5035114;28;20069;-68
2023/04/27 08:44:21;;;;;;;1.17;0.90;;;21.40;47.80;;;;;;5037499;28;20497;-67
2023/04/27 08:46:46;;;;;;;1.60;1.00;;;21.40;47.70;;;;;;5037844;28;20114;-67
2023/04/27 08:49:12;;;;;;;1.23;0.90;;;21.40;47.80;;;;;;5036464;28;20028;-68
2023/04/27 08:51:37;;;;;;;1.30;0.85;;;21.40;47.70;;;;;;5036002;28;20029;-68
2023/04/27 08:54:03;;;;;;;1.42;1.00;;;21.40;47.80;;;;;;5037248;28;20448;-68
2023/04/27 08:56:30;;;;;;;1.92;1.02;;;21.40;47.80;;;;;;5036090;28;20453;-68
2023/04/27 08:58:57;;;;;;;1.80;1.10;;;21.40;47.70;;;;;;5038850;28;20147;-68
2023/04/27 09:01:24;;;;;;;1.00;0.80;;;21.40;47.70;;;;;;5040230;28;20366;-68
2023/04/27 09:04:00;;;;;;;2.03;0.93;;;21.40;47.70;;;;;;5035339;28;20465;-69
2023/04/27 09:06:31;;;;;;;2.22;1.10;;;21.40;47.80;;;;;;5037553;28;20496;-68
2023/04/27 09:08:57;;;;;;;1.30;0.80;;;21.40;47.80;;;;;;5037852;28;20480;-69
2023/04/27 09:11:28;;;;;;;1.50;0.98;;;21.40;48.30;;;;;;5037336;28;20079;-68
2023/04/27 09:13:54;;;;;;;1.80;1.00;;;21.40;47.80;;;;;;5037221;28;20432;-69
2023/04/27 09:16:25;;;;;;;1.60;1.02;;;21.40;47.80;;;;;;5035188;28;20022;-68
2023/04/27 09:18:50;;;;;;;1.58;1.00;;;21.40;47.80;;;;;;5035737;28;20104;-68
2023/04/27 09:21:27;;;;;;;1.65;1.10;;;21.40;47.80;;;;;;5038330;28;20073;-69
2023/04/27 09:23:53;;;;;;;2.35;1.30;;;21.40;47.80;;;;;;5034054;28;20091;-68
2023/04/27 09:26:24;;;;;;;1.92;1.00;;;21.40;47.80;;;;;;5036188;28;20037;-68
2023/04/27 09:28:51;;;;;;;1.90;1.15;;;21.40;47.80;;;;;;5036572;28;20029;-69
2023/04/27 09:31:18;;;;;;;2.22;1.10;;;21.40;47.80;;;;;;5038156;28;20078;-69
2023/04/27 09:33:47;;;;;;;2.33;1.10;;;21.40;47.80;;;;;;5036111;28;20315;-69
2023/04/27 09:36:13;;;;;;;1.70;1.00;;;21.40;47.80;;;;;;5032837;28;20485;-67
2023/04/27 09:38:38;;;;;;;2.00;1.00;;;21.40;47.80;;;;;;5038835;28;20063;-68
2023/04/27 09:41:06;;;;;;;1.95;1.10;;;21.40;47.80;;;;;;5039108;28;20337;-69
2023/04/27 09:43:32;;;;;;;1.90;0.90;;;21.40;47.80;;;;;;5036561;28;20029;-69
2023/04/27 09:45:58;;;;;;;1.52;1.10;;;21.40;47.80;;;;;;5038741;28;20078;-69
2023/04/27 09:48:25;;;;;;;2.00;0.95;;;21.40;47.80;;;;;;5033625;28;20048;-68
2023/04/27 09:50:51;;;;;;;1.73;0.98;;;21.40;47.80;;;;;;5044470;28;20426;-68
2023/04/27 09:53:18;;;;;;;1.90;1.17;;;21.40;47.80;;;;;;5037187;28;20098;-69
2023/04/27 09:55:50;;;;;;;1.70;1.00;;;21.40;47.80;;;;;;5043378;28;20045;-68
2023/04/27 09:58:33;;;;;;;2.03;1.20;;;21.40;47.80;;;;;;5040939;28;20041;-68
2023/04/27 10:01:05;;;;;;;1.67;1.17;;;21.40;47.80;;;;;;5040293;28;20036;-68
2023/04/27 10:03:54;;;;;;;2.08;1.10;;;21.40;47.80;;;;;;5037449;28;20032;-68
2023/04/27 10:06:50;;;;;;;1.70;1.02;;;21.40;47.80;;;;;;5040637;28;20432;-68
2023/04/27 10:09:22;;;;;;;1.77;1.13;;;21.40;47.80;;;;;;5040465;28;20033;-68
2023/04/27 10:11:48;;;;;;;2.22;1.10;;;21.40;47.80;;;;;;5042213;28;20068;-69
2023/04/27 10:14:20;;;;;;;2.22;1.10;;;21.40;47.70;;;;;;5039651;28;20028;-69
2023/04/27 10:16:54;;;;;;;1.88;1.10;;;21.40;47.80;;;;;;5023444;28;20118;-68
2023/04/27 10:19:22;;;;;;;1.90;1.00;;;21.40;47.80;;;;;;5039922;28;20060;-69
2023/04/27 10:22:06;;;;;;;1.73;1.00;;;21.40;47.80;;;;;;5038527;28;20025;-69
2023/04/27 10:24:47;;;;;;;2.33;1.17;;;21.40;47.80;;;;;;5040665;28;20045;-69
2023/04/27 10:27:17;;;;;;;1.92;1.02;;;21.40;47.80;;;;;;5038668;28;20315;-69
2023/04/27 10:29:45;;;;;;;1.80;1.05;;;21.40;47.90;;;;;;5042960;28;20029;-69
2023/04/27 10:32:22;;;;;;;1.77;1.10;;;21.40;47.80;;;;;;5045719;28;20025;-68
2023/04/27 10:34:49;;;;;;;1.80;1.13;;;21.40;47.80;;;;;;5042689;28;20059;-69
2023/04/27 10:37:18;;;;;;;1.95;1.20;;;21.40;47.80;;;;;;5043652;28;20527;-69
2023/04/27 10:39:44;;;;;;;1.60;0.98;;;21.50;47.90;;;;;;5040929;28;20018;-68
2023/04/27 10:42:10;;;;;;;1.80;1.00;;;21.40;47.80;;;;;;5042685;28;20116;-68
2023/04/27 10:44:37;;;;;;;2.20;1.10;;;21.40;47.80;;;;;;5040126;28;20032;-69
2023/04/27 10:47:18;;;;;;;1.80;1.10;;;21.40;47.80;;;;;;5044076;28;20048;-69
2023/04/27 10:49:44;;;;;;;1.92;1.20;;;21.40;47.80;;;;;;5038422;28;20361;-69
2023/04/27 10:52:10;;;;;;;2.10;1.15;;;21.50;47.90;;;;;;5040482;28;20526;-70
2023/04/27 10:54:38;;;;;;;1.40;1.00;;;21.50;47.90;;;;;;5041731;28;20017;-70
2023/04/27 10:57:05;;;;;;;1.45;0.98;;;21.50;47.90;;;;;;5038540;28;20018;-69
2023/04/27 10:59:32;;;;;;;1.85;1.02;;;21.50;47.90;;;;;;5039702;28;20361;-69
2023/04/27 11:01:57;;;;;;;1.50;1.10;;;21.50;47.90;;;;;;5037370;28;20033;-70
2023/04/27 11:04:23;;;;;;;2.05;1.10;;;21.50;47.90;;;;;;5039699;28;20025;-68
2023/04/27 11:06:49;;;;;;;1.27;0.90;;;21.50;47.90;;;;;;5040669;28;20377;-70
2023/04/27 11:09:27;;;;;;;2.17;1.10;;;21.50;47.90;;;;;;5041156;28;20021;-69
2023/04/27 11:11:53;;;;;;;2.17;1.05;;;21.50;47.90;;;;;;5038514;28;20385;-69
2023/04/27 11:14:22;;;;;;;2.20;1.10;;;21.50;47.90;;;;;;5041674;28;20025;-69
2023/04/27 11:16:48;;;;;;;1.98;1.10;;;21.50;47.90;;;;;;5070190;28;20025;-70
2023/04/27 11:19:14;;;;;;;1.80;0.90;;;21.50;47.90;;;;;;5039132;28;20052;-69
2023/04/27 11:21:40;;;;;;;1.60;0.90;;;21.50;47.90;;;;;;5039537;28;20064;-70
2023/04/27 11:24:07;;;;;;;1.60;0.90;;;21.50;47.90;;;;;;5039771;28;20121;-70
2023/04/27 11:26:33;;;;;;;1.33;0.93;;;21.50;47.90;;;;;;5038742;28;20041;-70
2023/04/27 11:29:00;;;;;;;1.42;1.00;;;21.50;47.90;;;;;;5037619;28;20147;-69
2023/04/27 11:31:27;;;;;;;2.50;0.98;;;21.50;47.90;;;;;;5039268;28;20045;-70
2023/04/27 11:33:54;;;;;;;1.90;0.93;;;21.50;47.90;;;;;;5039188;28;20021;-69
2023/04/27 11:36:21;;;;;;;1.35;0.85;;;21.50;47.90;;;;;;5036967;28;20051;-70
2023/04/27 11:38:47;;;;;;;2.28;1.00;;;21.50;47.90;;;;;;5039467;28;20108;-70
2023/04/27 11:41:13;;;;;;;1.52;1.00;;;21.50;47.90;;;;;;5037377;28;20521;-70
2023/04/27 11:43:46;;;;;;;2.10;1.00;;;21.50;47.90;;;;;;5040392;28;20037;-70
2023/04/27 11:46:12;;;;;;;1.63;1.20;;;21.50;47.90;;;;;;5039865;28;20922;-69
2023/04/27 11:48:38;;;;;;;1.70;1.00;;;21.50;47.90;;;;;;5036684;28;20072;-70
2023/04/27 11:51:05;;;;;;;1.98;0.95;;;21.50;47.90;;;;;;5038647;28;20075;-70
2023/04/27 11:53:32;;;;;;;1.58;0.90;;;21.50;47.90;;;;;;5039519;28;20482;-70
2023/04/27 11:56:01;;;;;;;2.13;1.13;;;21.50;47.90;;;;;;5040547;28;20477;-69
2023/04/27 11:58:28;;;;;;;1.85;1.00;;;21.50;47.90;;;;;;5038531;28;20025;-70
2023/04/27 12:00:56;;;;;;;1.38;0.98;;;21.50;47.80;;;;;;5040155;28;20028;-70
2023/04/27 12:03:22;;;;;;;1.77;1.00;;;21.50;47.80;;;;;;5035218;28;20032;-70
2023/04/27 12:05:49;;;;;;;1.60;1.00;;;21.50;47.80;;;;;;5037012;28;20468;-71
2023/04/27 12:08:16;;;;;;;1.88;1.02;;;21.50;47.80;;;;;;5038838;28;20151;-70
2023/04/27 12:10:42;;;;;;;1.50;0.90;;;21.50;47.80;;;;;;5036121;28;20022;-70
2023/04/27 12:13:07;;;;;;;1.50;1.00;;;21.50;47.80;;;;;;5037522;28;20029;-70
2023/04/27 12:15:33;;;;;;;1.67;0.98;;;21.50;47.80;;;;;;5038198;28;20311;-70
2023/04/27 12:17:58;;;;;;;1.48;0.90;;;21.50;47.80;;;;;;5038446;28;20029;-70
2023/04/27 12:20:24;;;;;;;1.60;1.00;;;21.50;47.80;;;;;;5035964;28;20033;-71
2023/04/27 12:22:50;;;;;;;1.38;1.10;;;21.50;47.80;;;;;;5036191;28;20160;-70
2023/04/27 12:25:17;;;;;;;1.88;1.20;;;21.50;47.80;;;;;;5042003;28;20095;-70
2023/04/27 12:27:46;;;;;;;1.52;0.90;;;21.60;48.30;;;;;;5038132;28;20533;-70
2023/04/27 12:30:13;;;;;;;1.42;1.00;;;21.60;47.80;;;;;;5036039;28;20061;-70
2023/04/27 12:32:39;;;;;;;1.88;1.00;;;21.60;47.80;;;;;;5036929;28;20025;-70
2023/04/27 12:35:06;;;;;;;1.35;0.98;;;21.60;47.80;;;;;;5036989;28;20036;-70
2023/04/27 12:37:31;;;;;;;1.50;0.90;;;21.60;47.80;;;;;;5037047;28;20389;-70
2023/04/27 12:39:57;;;;;;;1.88;1.20;;;21.60;47.80;;;;;;5036606;28;20029;-70
2023/04/27 12:42:23;;;;;;;1.40;0.90;;;21.60;47.80;;;;;;5038264;28;20548;-70
2023/04/27 12:44:52;;;;;;;1.80;1.00;;;21.60;47.80;;;;;;5039447;28;20042;-69